sensor_id;sensor_type;location;lat;lon;timestamp;pressure;altitude;pressure_sealevel;temperature;humidity
23016;BME280;11674;52.428;13.584;2023-11-19T00:03:07;101334.00;;;3.40;84.21
23016;BME280;11674;52.428;13.584;2023-11-19T00:08:14;101322.38;;;3.38;84.56
23016;BME280;11674;52.428;13.584;2023-11-19T00:13:28;101316.84;;;3.38;84.35
23016;BME280;11674;52.428;13.584;2023-11-19T00:18:35;101299.25;;;3.39;84.37
23016;BME280;11674;52.428;13.584;2023-11-19T00:23:42;101283.50;;;3.39;84.33
23016;BME280;11674;52.428;13.584;2023-11-19T00:28:49;101263.41;;;3.39;84.46
23016;BME280;11674;52.428;13.584;2023-11-19T00:33:56;101273.34;;;3.40;84.46
23016;BME280;11674;52.428;13.584;2023-11-19T00:39:03;101264.81;;;3.41;84.37
23016;BME280;11674;52.428;13.584;2023-11-19T00:44:10;101254.34;;;3.43;84.38
23016;BME280;11674;52.428;13.584;2023-11-19T00:49:17;101231.44;;;3.43;84.38
23016;BME280;11674;52.428;13.584;2023-11-19T00:54:24;101223.44;;;3.41;84.28
23016;BME280;11674;52.428;13.584;2023-11-19T00:59:31;101206.38;;;3.44;84.45
23016;BME280;11674;52.428;13.584;2023-11-19T01:04:38;101196.19;;;3.45;84.44
23016;BME280;11674;52.428;13.584;2023-11-19T01:09:45;101162.00;;;3.46;84.38
23016;BME280;11674;52.428;13.584;2023-11-19T01:14:52;101162.56;;;3.48;84.38
23016;BME280;11674;52.428;13.584;2023-11-19T01:19:59;101137.47;;;3.49;84.61
23016;BME280;11674;52.428;13.584;2023-11-19T01:25:07;101122.34;;;3.52;84.52
23016;BME280;11674;52.428;13.584;2023-11-19T01:30:14;101098.06;;;3.54;84.71
23016;BME280;11674;52.428;13.584;2023-11-19T01:35:23;101073.00;;;3.55;84.58
23016;BME280;11674;52.428;13.584;2023-11-19T01:40:30;101078.81;;;3.59;84.70
23016;BME280;11674;52.428;13.584;2023-11-19T01:45:38;101072.53;;;3.63;84.69
23016;BME280;11674;52.428;13.584;2023-11-19T01:50:46;101060.97;;;3.66;84.76
23016;BME280;11674;52.428;13.584;2023-11-19T01:55:53;101035.38;;;3.71;84.77
23016;BME280;11674;52.428;13.584;2023-11-19T02:01:00;101027.66;;;3.73;84.73
23016;BME280;11674;52.428;13.584;2023-11-19T02:06:07;100997.84;;;3.75;84.71
23016;BME280;11674;52.428;13.584;2023-11-19T02:11:14;101002.81;;;3.73;84.51
23016;BME280;11674;52.428;13.584;2023-11-19T02:16:21;100975.69;;;3.65;84.43
23016;BME280;11674;52.428;13.584;2023-11-19T02:21:28;100939.25;;;3.58;84.51
23016;BME280;11674;52.428;13.584;2023-11-19T02:26:55;100923.50;;;3.53;84.67
23016;BME280;11674;52.428;13.584;2023-11-19T02:32:05;100918.50;;;3.50;84.53
23016;BME280;11674;52.428;13.584;2023-11-19T02:37:11;100902.19;;;3.49;84.78
23016;BME280;11674;52.428;13.584;2023-11-19T02:42:18;100889.00;;;3.51;84.83
23016;BME280;11674;52.428;13.584;2023-11-19T02:47:25;100884.34;;;3.56;84.64
23016;BME280;11674;52.428;13.584;2023-11-19T02:52:32;100882.41;;;3.57;84.72
23016;BME280;11674;52.428;13.584;2023-11-19T02:57:40;100869.47;;;3.62;84.83
23016;BME280;11674;52.428;13.584;2023-11-19T03:02:46;100835.59;;;3.67;84.93
23016;BME280;11674;52.428;13.584;2023-11-19T03:07:53;100818.25;;;3.76;85.08
23016;BME280;11674;52.428;13.584;2023-11-19T03:13:00;100823.78;;;3.76;84.83
23016;BME280;11674;52.428;13.584;2023-11-19T03:18:07;100803.66;;;3.81;84.88
23016;BME280;11674;52.428;13.584;2023-11-19T03:23:14;100796.75;;;3.83;84.79
23016;BME280;11674;52.428;13.584;2023-11-19T03:28:21;100784.34;;;3.86;84.91
23016;BME280;11674;52.428;13.584;2023-11-19T03:33:28;100807.00;;;3.88;84.85
23016;BME280;11674;52.428;13.584;2023-11-19T03:38:35;100804.81;;;3.90;84.97
23016;BME280;11674;52.428;13.584;2023-11-19T03:43:42;100797.66;;;3.94;84.92
23016;BME280;11674;52.428;13.584;2023-11-19T03:48:49;100785.50;;;3.95;84.84
23016;BME280;11674;52.428;13.584;2023-11-19T03:53:56;100761.78;;;3.94;84.69
23016;BME280;11674;52.428;13.584;2023-11-19T03:59:03;100741.31;;;3.85;84.45
23016;BME280;11674;52.428;13.584;2023-11-19T04:04:10;100731.31;;;3.69;84.12
23016;BME280;11674;52.428;13.584;2023-11-19T04:09:17;100728.22;;;3.55;84.23
23016;BME280;11674;52.428;13.584;2023-11-19T04:14:24;100711.34;;;3.42;84.43
23016;BME280;11674;52.428;13.584;2023-11-19T04:19:31;100666.63;;;3.30;84.24
23016;BME280;11674;52.428;13.584;2023-11-19T04:24:38;100669.88;;;3.22;84.24
23016;BME280;11674;52.428;13.584;2023-11-19T04:29:47;100653.59;;;3.15;84.29
23016;BME280;11674;52.428;13.584;2023-11-19T04:34:54;100637.06;;;3.10;84.38
23016;BME280;11674;52.428;13.584;2023-11-19T04:40:01;100625.75;;;3.07;84.72
23016;BME280;11674;52.428;13.584;2023-11-19T04:45:09;100612.22;;;3.05;84.61
23016;BME280;11674;52.428;13.584;2023-11-19T04:50:16;100616.88;;;3.05;84.79
23016;BME280;11674;52.428;13.584;2023-11-19T04:55:23;100633.16;;;3.06;84.76
23016;BME280;11674;52.428;13.584;2023-11-19T05:00:30;100645.56;;;3.09;85.10
23016;BME280;11674;52.428;13.584;2023-11-19T05:05:37;100633.44;;;3.10;85.12
23016;BME280;11674;52.428;13.584;2023-11-19T05:10:44;100611.66;;;3.08;84.88
23016;BME280;11674;52.428;13.584;2023-11-19T05:15:53;100594.31;;;3.08;85.18
23016;BME280;11674;52.428;13.584;2023-11-19T05:21:00;100567.25;;;3.00;85.16
23016;BME280;11674;52.428;13.584;2023-11-19T05:26:07;100563.97;;;3.03;85.49
23016;BME280;11674;52.428;13.584;2023-11-19T05:31:16;100547.97;;;3.00;85.41
23016;BME280;11674;52.428;13.584;2023-11-19T05:36:23;100536.69;;;2.96;85.58
23016;BME280;11674;52.428;13.584;2023-11-19T05:41:30;100533.91;;;2.96;85.77
23016;BME280;11674;52.428;13.584;2023-11-19T05:46:37;100529.50;;;2.95;85.76
23016;BME280;11674;52.428;13.584;2023-11-19T05:51:44;100517.13;;;2.98;85.97
23016;BME280;11674;52.428;13.584;2023-11-19T05:56:51;100502.50;;;2.97;86.07
23016;BME280;11674;52.428;13.584;2023-11-19T06:01:58;100493.72;;;3.00;86.00
23016;BME280;11674;52.428;13.584;2023-11-19T06:07:05;100483.22;;;3.02;86.19
23016;BME280;11674;52.428;13.584;2023-11-19T06:12:12;100473.34;;;3.06;86.15
23016;BME280;11674;52.428;13.584;2023-11-19T06:17:19;100470.56;;;3.06;86.15
23016;BME280;11674;52.428;13.584;2023-11-19T06:22:28;100458.19;;;3.09;86.14
23016;BME280;11674;52.428;13.584;2023-11-19T06:27:35;100449.66;;;3.10;86.24
23016;BME280;11674;52.428;13.584;2023-11-19T06:32:42;100439.16;;;3.12;86.30
23016;BME280;11674;52.428;13.584;2023-11-19T06:37:49;100405.00;;;3.13;86.20
23016;BME280;11674;52.428;13.584;2023-11-19T06:42:56;100415.75;;;3.15;86.18
23016;BME280;11674;52.428;13.584;2023-11-19T06:48:04;100428.41;;;3.16;86.05
23016;BME280;11674;52.428;13.584;2023-11-19T06:53:10;100403.63;;;3.16;86.17
23016;BME280;11674;52.428;13.584;2023-11-19T06:58:24;100390.69;;;3.21;86.30
23016;BME280;11674;52.428;13.584;2023-11-19T07:03:31;100391.78;;;3.25;86.33
23016;BME280;11674;52.428;13.584;2023-11-19T07:08:39;100383.78;;;3.29;86.43
23016;BME280;11674;52.428;13.584;2023-11-19T07:13:47;100394.25;;;3.32;86.35
23016;BME280;11674;52.428;13.584;2023-11-19T07:18:54;100392.34;;;3.37;86.34
23016;BME280;11674;52.428;13.584;2023-11-19T07:24:02;100390.13;;;3.39;86.26
23016;BME280;11674;52.428;13.584;2023-11-19T07:29:09;100406.94;;;3.43;86.42
23016;BME280;11674;52.428;13.584;2023-11-19T07:34:16;100385.97;;;3.47;86.61
23016;BME280;11674;52.428;13.584;2023-11-19T07:39:23;100391.50;;;3.52;86.46
23016;BME280;11674;52.428;13.584;2023-11-19T07:44:30;100394.25;;;3.57;86.47
23016;BME280;11674;52.428;13.584;2023-11-19T07:49:37;100391.50;;;3.62;86.45
23016;BME280;11674;52.428;13.584;2023-11-19T07:54:44;100392.28;;;3.67;86.54
23016;BME280;11674;52.428;13.584;2023-11-19T07:59:51;100385.69;;;3.73;86.40
23016;BME280;11674;52.428;13.584;2023-11-19T08:04:58;100386.22;;;3.80;86.73
23016;BME280;11674;52.428;13.584;2023-11-19T08:10:06;100372.94;;;3.87;86.71
23016;BME280;11674;52.428;13.584;2023-11-19T08:15:12;100378.72;;;3.91;86.75
23016;BME280;11674;52.428;13.584;2023-11-19T08:20:19;100379.81;;;4.00;86.99
23016;BME280;11674;52.428;13.584;2023-11-19T08:25:26;100378.69;;;4.06;86.68
23016;BME280;11674;52.428;13.584;2023-11-19T08:30:33;100373.66;;;4.18;86.92
23016;BME280;11674;52.428;13.584;2023-11-19T08:35:41;100337.22;;;4.21;86.75
23016;BME280;11674;52.428;13.584;2023-11-19T08:40:47;100350.16;;;4.30;87.03
23016;BME280;11674;52.428;13.584;2023-11-19T08:45:54;100344.88;;;4.39;87.03
23016;BME280;11674;52.428;13.584;2023-11-19T08:51:01;100344.00;;;4.48;86.92
23016;BME280;11674;52.428;13.584;2023-11-19T08:56:08;100344.75;;;4.64;87.15
23016;BME280;11674;52.428;13.584;2023-11-19T09:01:15;100346.34;;;4.75;86.77
23016;BME280;11674;52.428;13.584;2023-11-19T09:06:22;100360.38;;;4.83;86.81
23016;BME280;11674;52.428;13.584;2023-11-19T09:11:29;100345.38;;;4.94;86.86
23016;BME280;11674;52.428;13.584;2023-11-19T09:16:36;100340.91;;;5.03;86.68
23016;BME280;11674;52.428;13.584;2023-11-19T09:21:43;100328.97;;;5.08;86.73
23016;BME280;11674;52.428;13.584;2023-11-19T09:26:50;100340.19;;;5.21;87.22
23016;BME280;11674;52.428;13.584;2023-11-19T09:31:57;100342.81;;;5.36;87.37
23016;BME280;11674;52.428;13.584;2023-11-19T09:37:04;100337.69;;;5.53;87.42
23016;BME280;11674;52.428;13.584;2023-11-19T09:42:12;100336.03;;;5.81;87.99
23016;BME280;11674;52.428;13.584;2023-11-19T09:47:19;100333.44;;;6.13;87.69
23016;BME280;11674;52.428;13.584;2023-11-19T09:52:26;100331.00;;;6.30;87.78
23016;BME280;11674;52.428;13.584;2023-11-19T09:57:34;100318.53;;;6.51;87.73
23016;BME280;11674;52.428;13.584;2023-11-19T10:02:43;100316.97;;;6.82;88.46
23016;BME280;11674;52.428;13.584;2023-11-19T10:07:50;100314.91;;;7.06;88.21
23016;BME280;11674;52.428;13.584;2023-11-19T10:12:57;100317.38;;;7.26;88.38
23016;BME280;11674;52.428;13.584;2023-11-19T10:18:04;100317.09;;;7.41;88.12
23016;BME280;11674;52.428;13.584;2023-11-19T10:23:11;100319.63;;;7.56;88.36
23016;BME280;11674;52.428;13.584;2023-11-19T10:28:18;100301.84;;;7.70;88.54
23016;BME280;11674;52.428;13.584;2023-11-19T10:33:29;100300.13;;;7.88;88.65
23016;BME280;11674;52.428;13.584;2023-11-19T10:38:36;100296.34;;;8.11;88.60
23016;BME280;11674;52.428;13.584;2023-11-19T10:43:44;100284.16;;;8.34;88.63
23016;BME280;11674;52.428;13.584;2023-11-19T10:48:51;100289.81;;;8.56;88.68
23016;BME280;11674;52.428;13.584;2023-11-19T10:54:05;100268.09;;;8.80;89.04
23016;BME280;11674;52.428;13.584;2023-11-19T10:59:13;100265.31;;;9.02;88.55
23016;BME280;11674;52.428;13.584;2023-11-19T11:04:23;100266.56;;;9.18;88.35
23016;BME280;11674;52.428;13.584;2023-11-19T11:09:31;100260.75;;;9.28;88.18
23016;BME280;11674;52.428;13.584;2023-11-19T11:14:39;100275.81;;;9.27;87.78
23016;BME280;11674;52.428;13.584;2023-11-19T11:19:48;100262.50;;;9.24;87.44
23016;BME280;11674;52.428;13.584;2023-11-19T11:31:07;100253.31;;;9.15;87.51
23016;BME280;11674;52.428;13.584;2023-11-19T11:36:22;100268.03;;;9.15;87.59
23016;BME280;11674;52.428;13.584;2023-11-19T11:41:29;100265.59;;;9.22;87.86
23016;BME280;11674;52.428;13.584;2023-11-19T11:51:57;100266.97;;;9.47;87.92
23016;BME280;11674;52.428;13.584;2023-11-19T11:57:10;100251.19;;;9.73;88.14
23016;BME280;11674;52.428;13.584;2023-11-19T12:02:22;100248.84;;;9.97;88.24
23016;BME280;11674;52.428;13.584;2023-11-19T12:07:28;100240.22;;;10.24;88.69
23016;BME280;11674;52.428;13.584;2023-11-19T12:12:35;100243.53;;;10.43;88.25
23016;BME280;11674;52.428;13.584;2023-11-19T12:17:46;100238.44;;;10.45;88.16
23016;BME280;11674;52.428;13.584;2023-11-19T12:22:53;100240.75;;;10.43;87.72
23016;BME280;11674;52.428;13.584;2023-11-19T12:28:00;100236.78;;;10.35;88.07
23016;BME280;11674;52.428;13.584;2023-11-19T12:33:08;100237.59;;;10.36;88.14
23016;BME280;11674;52.428;13.584;2023-11-19T12:38:23;100226.97;;;10.38;88.12
23016;BME280;11674;52.428;13.584;2023-11-19T12:43:30;100242.03;;;10.37;87.80
23016;BME280;11674;52.428;13.584;2023-11-19T12:48:37;100246.63;;;10.24;87.45
23016;BME280;11674;52.428;13.584;2023-11-19T12:53:49;100241.19;;;10.11;87.58
23016;BME280;11674;52.428;13.584;2023-11-19T12:58:56;100247.34;;;9.91;87.24
23016;BME280;11674;52.428;13.584;2023-11-19T13:04:18;100236.03;;;9.87;88.42
23016;BME280;11674;52.428;13.584;2023-11-19T13:09:26;100243.56;;;9.95;88.69
23016;BME280;11674;52.428;13.584;2023-11-19T13:14:37;100243.09;;;10.02;88.86
23016;BME280;11674;52.428;13.584;2023-11-19T13:19:43;100243.44;;;10.09;88.94
23016;BME280;11674;52.428;13.584;2023-11-19T13:24:53;100239.19;;;10.11;88.72
23016;BME280;11674;52.428;13.584;2023-11-19T13:30:04;100229.03;;;10.07;88.29
23016;BME280;11674;52.428;13.584;2023-11-19T13:35:12;100240.22;;;10.24;89.49
23016;BME280;11674;52.428;13.584;2023-11-19T13:40:19;100239.09;;;10.50;88.91
23016;BME280;11674;52.428;13.584;2023-11-19T13:45:26;100242.38;;;10.52;88.43
23016;BME280;11674;52.428;13.584;2023-11-19T13:50:33;100244.81;;;10.37;87.89
23016;BME280;11674;52.428;13.584;2023-11-19T13:55:42;100238.91;;;10.21;87.72
23016;BME280;11674;52.428;13.584;2023-11-19T14:00:48;100245.28;;;10.13;87.55
23016;BME280;11674;52.428;13.584;2023-11-19T14:05:55;100240.50;;;10.05;87.59
23016;BME280;11674;52.428;13.584;2023-11-19T14:11:02;100239.84;;;10.00;87.75
23016;BME280;11674;52.428;13.584;2023-11-19T14:16:09;100250.47;;;9.98;88.15
23016;BME280;11674;52.428;13.584;2023-11-19T14:21:16;100249.16;;;9.95;88.06
23016;BME280;11674;52.428;13.584;2023-11-19T14:26:23;100260.28;;;9.95;88.03
23016;BME280;11674;52.428;13.584;2023-11-19T14:31:30;100266.69;;;9.96;88.23
23016;BME280;11674;52.428;13.584;2023-11-19T14:36:37;100261.94;;;9.96;88.10
23016;BME280;11674;52.428;13.584;2023-11-19T14:41:44;100259.16;;;9.96;88.47
23016;BME280;11674;52.428;13.584;2023-11-19T14:46:51;100259.50;;;9.95;88.08
23016;BME280;11674;52.428;13.584;2023-11-19T14:51:58;100270.94;;;9.93;88.05
23016;BME280;11674;52.428;13.584;2023-11-19T14:57:05;100266.31;;;9.89;87.88
23016;BME280;11674;52.428;13.584;2023-11-19T15:02:12;100273.38;;;9.86;88.01
23016;BME280;11674;52.428;13.584;2023-11-19T15:07:19;100274.50;;;9.85;88.25
23016;BME280;11674;52.428;13.584;2023-11-19T15:12:27;100275.97;;;9.83;88.26
23016;BME280;11674;52.428;13.584;2023-11-19T15:17:35;100282.53;;;9.78;87.65
23016;BME280;11674;52.428;13.584;2023-11-19T15:22:41;100272.50;;;9.69;87.40
23016;BME280;11674;52.428;13.584;2023-11-19T15:27:48;100271.44;;;9.56;87.70
23016;BME280;11674;52.428;13.584;2023-11-19T15:32:55;100280.56;;;9.48;87.79
23016;BME280;11674;52.428;13.584;2023-11-19T15:38:02;100292.78;;;9.39;87.54
23016;BME280;11674;52.428;13.584;2023-11-19T15:43:09;100292.38;;;9.32;87.90
23016;BME280;11674;52.428;13.584;2023-11-19T15:48:18;100300.22;;;9.30;87.96
23016;BME280;11674;52.428;13.584;2023-11-19T15:53:26;100301.06;;;9.30;88.08
23016;BME280;11674;52.428;13.584;2023-11-19T15:58:32;100302.38;;;9.33;88.11
23016;BME280;11674;52.428;13.584;2023-11-19T16:03:39;100315.72;;;9.36;87.99
23016;BME280;11674;52.428;13.584;2023-11-19T16:08:46;100309.50;;;9.39;88.32
23016;BME280;11674;52.428;13.584;2023-11-19T16:13:53;100303.59;;;9.40;88.36
23016;BME280;11674;52.428;13.584;2023-11-19T16:19:00;100306.09;;;9.42;88.45
23016;BME280;11674;52.428;13.584;2023-11-19T16:24:07;100304.94;;;9.43;88.21
23016;BME280;11674;52.428;13.584;2023-11-19T16:29:14;100309.38;;;9.44;88.36
23016;BME280;11674;52.428;13.584;2023-11-19T16:34:21;100311.00;;;9.45;88.37
23016;BME280;11674;52.428;13.584;2023-11-19T16:39:28;100318.03;;;9.42;88.03
23016;BME280;11674;52.428;13.584;2023-11-19T16:44:36;100322.78;;;9.42;88.04
23016;BME280;11674;52.428;13.584;2023-11-19T16:49:42;100310.38;;;9.26;87.27
23016;BME280;11674;52.428;13.584;2023-11-19T16:54:49;100306.88;;;9.20;87.85
23016;BME280;11674;52.428;13.584;2023-11-19T16:59:57;100324.41;;;9.21;88.30
23016;BME280;11674;52.428;13.584;2023-11-19T17:05:04;100320.09;;;9.15;88.01
23016;BME280;11674;52.428;13.584;2023-11-19T17:10:11;100326.38;;;8.85;86.59
23016;BME280;11674;52.428;13.584;2023-11-19T17:15:17;100317.06;;;8.67;87.19
23016;BME280;11674;52.428;13.584;2023-11-19T17:20:24;100310.72;;;8.53;87.48
23016;BME280;11674;52.428;13.584;2023-11-19T17:25:31;100328.84;;;8.51;87.77
23016;BME280;11674;52.428;13.584;2023-11-19T17:30:38;100322.25;;;8.47;87.70
23016;BME280;11674;52.428;13.584;2023-11-19T17:36:01;100322.97;;;8.39;87.60
23016;BME280;11674;52.428;13.584;2023-11-19T17:41:12;100311.47;;;8.32;87.66
23016;BME280;11674;52.428;13.584;2023-11-19T17:46:19;100317.31;;;8.30;87.80
23016;BME280;11674;52.428;13.584;2023-11-19T17:51:26;100321.13;;;8.34;88.14
23016;BME280;11674;52.428;13.584;2023-11-19T17:56:33;100322.97;;;8.39;88.10
23016;BME280;11674;52.428;13.584;2023-11-19T18:01:40;100322.16;;;8.38;87.85
23016;BME280;11674;52.428;13.584;2023-11-19T18:06:47;100336.06;;;8.38;88.10
23016;BME280;11674;52.428;13.584;2023-11-19T18:11:54;100333.38;;;8.33;87.91
23016;BME280;11674;52.428;13.584;2023-11-19T18:17:01;100345.94;;;8.31;87.91
23016;BME280;11674;52.428;13.584;2023-11-19T18:22:08;100338.41;;;8.31;88.21
23016;BME280;11674;52.428;13.584;2023-11-19T18:27:16;100344.91;;;8.27;88.15
23016;BME280;11674;52.428;13.584;2023-11-19T18:32:22;100342.63;;;8.15;87.63
23016;BME280;11674;52.428;13.584;2023-11-19T18:37:29;100353.66;;;8.07;87.78
23016;BME280;11674;52.428;13.584;2023-11-19T18:42:37;100342.63;;;8.02;88.04
23016;BME280;11674;52.428;13.584;2023-11-19T18:47:44;100342.13;;;8.00;88.15
23016;BME280;11674;52.428;13.584;2023-11-19T18:52:50;100329.66;;;7.97;87.95
23016;BME280;11674;52.428;13.584;2023-11-19T18:57:57;100333.03;;;7.94;88.23
23016;BME280;11674;52.428;13.584;2023-11-19T19:03:04;100329.94;;;7.96;88.15
23016;BME280;11674;52.428;13.584;2023-11-19T19:08:11;100343.84;;;7.96;88.02
23016;BME280;11674;52.428;13.584;2023-11-19T19:13:21;100346.72;;;7.91;87.85
23016;BME280;11674;52.428;13.584;2023-11-19T19:18:28;100350.63;;;7.90;87.99
23016;BME280;11674;52.428;13.584;2023-11-19T19:23:35;100351.25;;;7.87;87.69
23016;BME280;11674;52.428;13.584;2023-11-19T19:28:42;100342.91;;;7.87;87.92
23016;BME280;11674;52.428;13.584;2023-11-19T19:33:49;100352.25;;;7.91;88.04
23016;BME280;11674;52.428;13.584;2023-11-19T19:38:57;100356.59;;;7.97;87.76
23016;BME280;11674;52.428;13.584;2023-11-19T19:44:04;100360.66;;;8.04;88.09
23016;BME280;11674;52.428;13.584;2023-11-19T19:49:11;100358.09;;;8.08;87.78
23016;BME280;11674;52.428;13.584;2023-11-19T19:54:18;100356.63;;;8.10;87.49
23016;BME280;11674;52.428;13.584;2023-11-19T19:59:25;100362.63;;;8.04;87.43
23016;BME280;11674;52.428;13.584;2023-11-19T20:04:32;100347.69;;;8.00;87.46
23016;BME280;11674;52.428;13.584;2023-11-19T20:09:40;100356.28;;;7.98;87.69
23016;BME280;11674;52.428;13.584;2023-11-19T20:14:46;100352.63;;;8.03;87.82
23016;BME280;11674;52.428;13.584;2023-11-19T20:19:54;100355.31;;;8.08;88.12
23016;BME280;11674;52.428;13.584;2023-11-19T20:25:00;100356.88;;;8.14;87.81
23016;BME280;11674;52.428;13.584;2023-11-19T20:30:08;100356.22;;;8.17;87.84
23016;BME280;11674;52.428;13.584;2023-11-19T20:35:15;100362.31;;;8.19;87.72
23016;BME280;11674;52.428;13.584;2023-11-19T20:40:21;100367.03;;;8.18;87.65
23016;BME280;11674;52.428;13.584;2023-11-19T20:45:28;100371.47;;;8.19;87.51
23016;BME280;11674;52.428;13.584;2023-11-19T20:50:35;100370.13;;;8.17;87.44
23016;BME280;11674;52.428;13.584;2023-11-19T20:55:42;100371.25;;;8.16;87.52
23016;BME280;11674;52.428;13.584;2023-11-19T21:00:49;100374.88;;;8.16;87.40
23016;BME280;11674;52.428;13.584;2023-11-19T21:05:56;100376.91;;;8.11;87.03
23016;BME280;11674;52.428;13.584;2023-11-19T21:11:08;100371.47;;;8.06;87.02
23016;BME280;11674;52.428;13.584;2023-11-19T21:16:14;100377.66;;;8.03;87.09
23016;BME280;11674;52.428;13.584;2023-11-19T21:21:21;100385.13;;;8.02;87.07
23016;BME280;11674;52.428;13.584;2023-11-19T21:26:28;100371.84;;;7.99;86.96
23016;BME280;11674;52.428;13.584;2023-11-19T21:31:35;100378.59;;;7.93;86.94
23016;BME280;11674;52.428;13.584;2023-11-19T21:36:42;100372.63;;;7.86;86.96
23016;BME280;11674;52.428;13.584;2023-11-19T21:41:49;100365.00;;;7.78;86.78
23016;BME280;11674;52.428;13.584;2023-11-19T21:46:57;100368.69;;;7.74;87.03
23016;BME280;11674;52.428;13.584;2023-11-19T21:52:04;100367.91;;;7.73;87.10
23016;BME280;11674;52.428;13.584;2023-11-19T21:57:11;100364.78;;;7.75;87.38
23016;BME280;11674;52.428;13.584;2023-11-19T22:02:18;100376.09;;;7.78;87.63
23016;BME280;11674;52.428;13.584;2023-11-19T22:07:25;100371.88;;;7.81;87.58
23016;BME280;11674;52.428;13.584;2023-11-19T22:12:31;100359.88;;;7.85;87.83
23016;BME280;11674;52.428;13.584;2023-11-19T22:17:38;100364.31;;;7.86;87.77
23016;BME280;11674;52.428;13.584;2023-11-19T22:22:55;100366.25;;;7.86;87.90
23016;BME280;11674;52.428;13.584;2023-11-19T22:28:03;100360.69;;;7.86;87.68
23016;BME280;11674;52.428;13.584;2023-11-19T22:33:10;100357.41;;;7.84;87.61
23016;BME280;11674;52.428;13.584;2023-11-19T22:38:17;100369.66;;;7.83;87.58
23016;BME280;11674;52.428;13.584;2023-11-19T22:43:27;100365.84;;;7.79;87.37
23016;BME280;11674;52.428;13.584;2023-11-19T22:48:34;100369.25;;;7.76;87.65
23016;BME280;11674;52.428;13.584;2023-11-19T22:53:44;100365.63;;;7.75;88.01
23016;BME280;11674;52.428;13.584;2023-11-19T22:58:52;100357.81;;;7.77;88.08
23016;BME280;11674;52.428;13.584;2023-11-19T23:03:59;100371.09;;;7.80;88.03
23016;BME280;11674;52.428;13.584;2023-11-19T23:09:06;100374.28;;;7.87;88.30
23016;BME280;11674;52.428;13.584;2023-11-19T23:14:13;100371.09;;;7.94;88.31
23016;BME280;11674;52.428;13.584;2023-11-19T23:19:20;100366.00;;;8.01;88.28
23016;BME280;11674;52.428;13.584;2023-11-19T23:24:27;100369.50;;;8.06;87.89
23016;BME280;11674;52.428;13.584;2023-11-19T23:29:34;100366.09;;;8.09;87.80
23016;BME280;11674;52.428;13.584;2023-11-19T23:34:41;100360.53;;;8.09;88.09
23016;BME280;11674;52.428;13.584;2023-11-19T23:39:48;100365.31;;;8.09;87.86
23016;BME280;11674;52.428;13.584;2023-11-19T23:44:55;100359.09;;;8.12;88.24
23016;BME280;11674;52.428;13.584;2023-11-19T23:50:02;100363.84;;;8.11;88.09
23016;BME280;11674;52.428;13.584;2023-11-19T23:55:09;100358.81;;;8.13;88.18
